createdAt,value
2022-12-08T00:01:08.495Z,94.00
2022-12-08T00:03:35.406Z,94.75
2022-12-08T00:06:22.220Z,94.38
2022-12-08T00:09:07.738Z,94.13
2022-12-08T00:11:34.746Z,94.13
2022-12-08T00:14:01.581Z,94.25
2022-12-08T00:16:28.442Z,93.97
2022-12-08T00:18:55.147Z,94.23
2022-12-08T00:21:21.750Z,94.08
2022-12-08T00:23:48.381Z,94.13
2022-12-08T00:26:15.397Z,93.89
2022-12-08T00:28:42.085Z,94.52
2022-12-08T00:31:10.459Z,94.68
2022-12-08T00:33:37.512Z,94.70
2022-12-08T00:36:13.207Z,94.83
2022-12-08T00:38:40.739Z,94.64
2022-12-08T00:41:12.533Z,94.47
2022-12-08T00:43:39.272Z,94.65
2022-12-08T00:46:06.264Z,94.15
2022-12-08T00:48:32.949Z,94.10
2022-12-08T00:50:59.574Z,93.69
2022-12-08T00:53:26.209Z,93.51
2022-12-08T00:55:52.872Z,93.48
2022-12-08T00:58:19.443Z,93.54
2022-12-08T01:00:46.095Z,93.83
2022-12-08T01:03:13.439Z,93.89
2022-12-08T01:05:40.147Z,94.25
2022-12-08T01:08:08.639Z,94.55
2022-12-08T01:10:36.730Z,94.96
2022-12-08T01:13:04.149Z,95.10
2022-12-08T01:15:30.800Z,94.87
2022-12-08T01:17:57.490Z,94.82
2022-12-08T01:20:24.329Z,94.82
2022-12-08T01:22:50.989Z,95.13
2022-12-08T01:25:17.820Z,95.29
2022-12-08T01:27:44.414Z,95.37
2022-12-08T01:30:11.466Z,95.30
2022-12-08T01:32:37.981Z,95.12
2022-12-08T01:35:04.829Z,95.08
2022-12-08T01:37:31.432Z,94.98
2022-12-08T01:39:58.001Z,94.83
2022-12-08T01:42:25.138Z,94.90
2022-12-08T01:45:03.964Z,94.71
2022-12-08T01:47:45.302Z,94.74
2022-12-08T01:50:14.981Z,94.96
2022-12-08T01:52:45.117Z,94.65
2022-12-08T01:55:23.067Z,94.66
2022-12-08T01:57:52.943Z,94.36
2022-12-08T02:00:21.819Z,94.51
2022-12-08T02:02:57.475Z,94.69
2022-12-08T02:05:28.305Z,94.81
2022-12-08T02:07:56.276Z,95.05
2022-12-08T02:10:27.305Z,95.33
2022-12-08T02:12:56.392Z,95.52
2022-12-08T02:15:32.798Z,95.59
2022-12-08T02:18:22.703Z,95.84
2022-12-08T02:21:29.183Z,96.00
2022-12-08T02:24:18.436Z,96.05
2022-12-08T02:26:47.897Z,95.94
2022-12-08T02:29:23.753Z,96.10
2022-12-08T02:32:15.060Z,95.94
2022-12-08T02:34:52.079Z,95.91
2022-12-08T02:37:47.516Z,95.91
2022-12-08T02:40:35.506Z,95.82
2022-12-08T02:43:29.880Z,95.41
2022-12-08T02:46:07.864Z,95.45
2022-12-08T02:48:35.100Z,95.37
2022-12-08T02:51:02.657Z,95.53
2022-12-08T02:53:32.477Z,95.16
2022-12-08T02:56:31.317Z,94.90
2022-12-08T02:59:00.814Z,94.83
2022-12-08T03:01:36.424Z,94.66
2022-12-08T03:04:28.025Z,94.61
2022-12-08T03:07:19.355Z,94.38
2022-12-08T03:10:03.072Z,94.44
2022-12-08T03:12:52.400Z,94.38
2022-12-08T03:15:21.546Z,94.35
2022-12-08T03:17:54.869Z,94.28
2022-12-08T03:20:24.509Z,94.10
2022-12-08T03:22:54.361Z,94.08
2022-12-08T03:25:24.629Z,94.30
2022-12-08T03:27:52.056Z,93.87
2022-12-08T03:30:18.952Z,93.78
2022-12-08T03:32:58.625Z,93.88
2022-12-08T03:35:29.606Z,93.80
2022-12-08T03:38:11.887Z,93.80
2022-12-08T03:40:39.235Z,94.11
2022-12-08T03:43:05.956Z,94.00
2022-12-08T03:45:32.555Z,93.71
2022-12-08T03:47:59.306Z,94.03
2022-12-08T03:50:26.285Z,94.14
2022-12-08T03:52:52.940Z,94.14
2022-12-08T03:55:19.952Z,94.40
2022-12-08T03:57:46.549Z,94.73
2022-12-08T04:00:17.053Z,95.17
2022-12-08T04:02:43.876Z,95.83
2022-12-08T04:05:10.626Z,96.21
2022-12-08T04:07:38.023Z,96.71
2022-12-08T04:10:06.017Z,97.05
2022-12-08T04:12:32.893Z,97.73
2022-12-08T04:14:59.511Z,97.82
2022-12-08T04:17:26.133Z,98.17
2022-12-08T04:19:52.829Z,98.21
2022-12-08T04:22:20.150Z,98.04
2022-12-08T04:25:04.121Z,98.54
2022-12-08T04:27:30.823Z,98.59
2022-12-08T04:29:57.505Z,98.81
2022-12-08T04:32:24.160Z,98.83
2022-12-08T04:34:50.791Z,99.01
2022-12-08T04:37:17.340Z,99.19
2022-12-08T04:39:44.262Z,99.28
2022-12-08T04:42:10.938Z,99.60
2022-12-08T04:44:37.542Z,99.39
2022-12-08T04:47:04.366Z,99.59
2022-12-08T04:49:31.115Z,99.43
2022-12-08T04:51:57.741Z,99.88
2022-12-08T04:54:24.372Z,99.73
2022-12-08T04:56:50.978Z,99.88
2022-12-08T04:59:17.584Z,99.88
2022-12-08T05:01:44.263Z,99.89
2022-12-08T05:04:11.094Z,99.48
2022-12-08T05:06:37.762Z,100.00
2022-12-08T05:09:04.542Z,99.54
2022-12-08T05:11:31.130Z,99.46
2022-12-08T05:13:57.745Z,99.32
2022-12-08T05:16:24.533Z,99.62
2022-12-08T05:18:51.152Z,99.71
2022-12-08T05:21:17.828Z,99.56
2022-12-08T05:23:44.461Z,99.51
2022-12-08T05:26:11.013Z,99.83
2022-12-08T05:28:42.285Z,99.76
2022-12-08T05:31:10.796Z,99.85
2022-12-08T05:33:37.550Z,99.64
2022-12-08T05:36:04.253Z,99.39
2022-12-08T05:38:30.866Z,99.33
2022-12-08T05:40:57.511Z,99.48
2022-12-08T05:43:25.905Z,99.30
2022-12-08T05:45:52.650Z,99.18
2022-12-08T05:48:19.416Z,99.05
2022-12-08T05:50:49.929Z,98.96
2022-12-08T05:53:17.796Z,98.87
2022-12-08T05:55:44.692Z,98.83
2022-12-08T05:58:17.433Z,98.62
2022-12-08T06:00:44.354Z,98.73
2022-12-08T06:03:12.432Z,98.17
2022-12-08T06:05:40.172Z,98.09
2022-12-08T06:08:06.840Z,97.70
2022-12-08T06:10:34.184Z,97.56
2022-12-08T06:13:00.819Z,97.36
2022-12-08T06:15:27.494Z,96.86
2022-12-08T06:17:54.084Z,96.80
2022-12-08T06:20:20.718Z,96.80
2022-12-08T06:22:47.433Z,96.98
2022-12-08T06:25:13.958Z,96.92
2022-12-08T06:27:40.584Z,96.94
2022-12-08T06:30:07.943Z,96.99
2022-12-08T06:32:34.605Z,96.89
2022-12-08T06:35:03.372Z,96.69
2022-12-08T06:37:30.101Z,96.61
2022-12-08T06:39:56.995Z,96.49
2022-12-08T06:42:43.165Z,96.43
2022-12-08T06:45:14.392Z,96.32
2022-12-08T06:47:41.385Z,96.60
2022-12-08T06:50:09.811Z,96.54
2022-12-08T06:52:49.279Z,96.53
2022-12-08T06:55:42.539Z,96.44
2022-12-08T06:58:06.930Z,96.41
2022-12-08T07:00:33.506Z,96.24
2022-12-08T07:03:00.137Z,96.04
2022-12-08T07:05:26.987Z,96.02
2022-12-08T07:07:53.735Z,95.95
2022-12-08T07:10:20.411Z,95.91
2022-12-08T07:12:47.016Z,95.90
2022-12-08T07:15:13.787Z,95.79
2022-12-08T07:17:40.415Z,95.65
2022-12-08T07:20:09.735Z,95.50
2022-12-08T07:22:36.325Z,95.56
2022-12-08T07:25:03.202Z,95.65
2022-12-08T07:27:29.833Z,95.86
2022-12-08T07:29:56.421Z,95.78
2022-12-08T07:32:23.211Z,95.85
2022-12-08T07:34:49.939Z,95.73
2022-12-08T07:37:16.597Z,95.74
2022-12-08T07:39:43.225Z,95.66
2022-12-08T07:42:09.908Z,95.43
2022-12-08T07:44:48.691Z,95.24
2022-12-08T07:47:15.422Z,95.28
2022-12-08T07:49:42.236Z,94.92
2022-12-08T07:52:09.100Z,94.68
2022-12-08T07:54:35.818Z,94.50
2022-12-08T07:57:03.737Z,94.26
2022-12-08T07:59:30.320Z,94.56
2022-12-08T08:02:21.313Z,94.27
2022-12-08T08:04:44.030Z,94.12
2022-12-08T08:07:11.667Z,93.78
2022-12-08T08:09:38.503Z,93.47
2022-12-08T08:12:30.365Z,93.33
2022-12-08T08:14:56.563Z,92.58
2022-12-08T08:17:23.265Z,92.24
2022-12-08T08:19:50.061Z,92.41
2022-12-08T08:22:18.910Z,92.12
2022-12-08T08:24:45.621Z,91.88
2022-12-08T08:27:12.725Z,91.95
2022-12-08T08:29:39.507Z,91.73
2022-12-08T08:32:06.247Z,91.52
2022-12-08T08:34:33.056Z,91.78
2022-12-08T08:36:59.745Z,92.04
2022-12-08T08:39:27.158Z,92.02
2022-12-08T08:41:53.847Z,91.87
2022-12-08T08:44:20.622Z,92.10
2022-12-08T08:46:47.322Z,91.56
2022-12-08T08:49:14.055Z,91.06
2022-12-08T08:51:40.883Z,90.21
2022-12-08T08:54:07.537Z,89.79
2022-12-08T08:56:34.126Z,89.18
2022-12-08T08:59:00.798Z,88.72
2022-12-08T09:01:28.743Z,88.58
2022-12-08T09:03:56.519Z,88.67
2022-12-08T09:06:24.844Z,88.52
2022-12-08T09:08:51.776Z,88.52
2022-12-08T09:11:23.566Z,88.81
2022-12-08T09:13:52.196Z,88.47
2022-12-08T09:19:29.456Z,87.90
2022-12-08T09:21:56.124Z,88.02
2022-12-08T09:24:23.286Z,88.21
2022-12-08T09:26:49.933Z,87.75
2022-12-08T09:29:17.894Z,87.44
2022-12-08T09:31:47.890Z,87.54
2022-12-08T09:34:14.747Z,87.28
2022-12-08T09:36:41.584Z,87.57
2022-12-08T09:39:08.252Z,87.75
2022-12-08T09:41:59.346Z,87.73
2022-12-08T09:44:44.695Z,87.24
2022-12-08T09:47:35.310Z,86.71
2022-12-08T09:50:07.545Z,86.46
2022-12-08T09:52:41.410Z,86.04
2022-12-08T09:55:40.554Z,86.03
2022-12-08T09:58:17.484Z,85.59
2022-12-08T10:00:44.243Z,85.21
2022-12-08T10:03:16.675Z,84.80
2022-12-08T10:05:54.299Z,83.87
2022-12-08T10:08:33.256Z,84.25
2022-12-08T10:11:07.784Z,84.01
2022-12-08T10:14:06.681Z,83.76
2022-12-08T10:16:39.496Z,83.12
2022-12-08T10:19:21.416Z,81.50
2022-12-08T10:21:48.983Z,82.16
2022-12-08T10:24:24.928Z,81.84
2022-12-08T10:26:51.556Z,81.80
2022-12-08T10:29:18.988Z,81.45
2022-12-08T10:31:45.723Z,82.26
2022-12-08T10:34:24.357Z,82.42
2022-12-08T10:36:59.113Z,82.71
2022-12-08T10:39:33.249Z,83.29
2022-12-08T10:42:15.748Z,82.65
2022-12-08T10:44:59.876Z,82.64
2022-12-08T10:47:28.684Z,82.36
2022-12-08T10:50:10.786Z,82.38
2022-12-08T10:52:41.268Z,82.15
2022-12-08T10:55:20.140Z,81.71
2022-12-08T10:57:49.048Z,81.93
2022-12-08T11:00:27.325Z,81.23
2022-12-08T11:03:00.131Z,80.98
2022-12-08T11:05:33.973Z,80.47
2022-12-08T11:08:01.869Z,80.67
2022-12-08T11:10:35.848Z,80.40
2022-12-08T11:13:06.330Z,80.17
2022-12-08T11:15:38.225Z,79.83
2022-12-08T11:18:28.635Z,79.97
2022-12-08T11:21:19.301Z,79.65
2022-12-08T11:23:50.485Z,79.46
2022-12-08T11:26:35.941Z,79.33
2022-12-08T11:29:02.667Z,79.77
2022-12-08T11:31:49.886Z,79.48
2022-12-08T11:34:55.645Z,79.73
2022-12-08T11:37:34.447Z,79.69
2022-12-08T11:40:07.246Z,79.18
2022-12-08T11:43:19.474Z,79.49
2022-12-08T11:45:50.011Z,79.13
2022-12-08T11:48:36.756Z,79.30
2022-12-08T11:51:24.695Z,79.51
2022-12-08T11:54:18.706Z,78.94
2022-12-08T11:56:53.409Z,79.16
2022-12-08T11:59:28.791Z,78.99
2022-12-08T12:01:57.000Z,78.97
2022-12-08T12:04:36.535Z,78.73
2022-12-08T12:07:03.149Z,78.66
2022-12-08T12:09:48.700Z,78.27
2022-12-08T12:12:41.361Z,78.36
2022-12-08T12:15:37.205Z,76.94
2022-12-08T12:18:11.993Z,77.29
2022-12-08T12:20:53.867Z,77.07
2022-12-08T12:23:48.043Z,76.42
2022-12-08T12:26:25.287Z,76.16
2022-12-08T12:28:52.686Z,76.07
2022-12-08T12:31:24.373Z,75.65
2022-12-08T12:33:53.536Z,75.51
2022-12-08T12:36:20.385Z,75.76
2022-12-08T12:39:04.241Z,75.74
2022-12-08T12:41:45.452Z,75.97
2022-12-08T12:44:12.021Z,76.07
2022-12-08T12:46:50.634Z,76.74
2022-12-08T12:49:43.930Z,76.59
2022-12-08T12:52:10.482Z,76.91
2022-12-08T12:54:43.255Z,77.10
2022-12-08T12:57:09.808Z,76.88
2022-12-08T13:00:05.519Z,76.53
2022-12-08T13:02:44.569Z,76.40
2022-12-08T13:05:18.779Z,76.53
2022-12-08T13:07:49.799Z,76.58
2022-12-08T13:10:19.102Z,76.79
2022-12-08T13:13:00.972Z,76.79
2022-12-08T13:15:35.670Z,76.98
2022-12-08T13:18:03.076Z,77.02
2022-12-08T13:20:29.913Z,77.11
2022-12-08T13:23:13.658Z,77.05
2022-12-08T13:25:40.195Z,77.00
2022-12-08T13:28:15.921Z,77.74
2022-12-08T13:30:44.125Z,77.76
2022-12-08T13:33:18.182Z,78.04
2022-12-08T13:35:49.050Z,77.89
2022-12-08T13:38:19.846Z,78.29
2022-12-08T13:40:47.352Z,78.47
2022-12-08T13:43:45.198Z,78.69
2022-12-08T13:47:09.296Z,79.00
2022-12-08T13:55:27.068Z,80.57
2022-12-08T13:57:36.393Z,81.12
2022-12-08T14:00:29.699Z,81.50
2022-12-08T14:02:58.751Z,82.07
2022-12-08T14:05:55.087Z,82.42
2022-12-08T14:15:38.659Z,83.81
2022-12-08T14:22:01.799Z,84.18
2022-12-08T14:24:32.484Z,84.70
2022-12-08T14:27:13.348Z,84.72
2022-12-08T14:29:45.904Z,84.86
2022-12-08T14:32:25.522Z,85.35
2022-12-08T14:35:26.988Z,85.30
2022-12-08T14:38:00.278Z,85.33
2022-12-08T14:40:41.704Z,85.65
2022-12-08T14:43:08.761Z,85.82
2022-12-08T14:45:38.534Z,85.82
2022-12-08T14:48:38.897Z,86.08
2022-12-08T14:51:24.372Z,86.04
2022-12-08T14:54:08.495Z,86.01
2022-12-08T14:56:50.339Z,85.84
2022-12-08T14:59:24.469Z,86.13
2022-12-08T15:01:54.649Z,86.37
2022-12-08T15:04:28.618Z,86.50
2022-12-08T15:07:12.861Z,86.55
2022-12-08T15:10:06.184Z,86.72
2022-12-08T15:12:36.035Z,86.54
2022-12-08T15:15:08.638Z,86.67
2022-12-08T15:17:48.827Z,86.78
2022-12-08T15:20:39.824Z,87.01
2022-12-08T15:23:17.736Z,87.25
2022-12-08T15:25:44.494Z,87.09
2022-12-08T15:28:18.525Z,87.25
2022-12-08T15:30:45.661Z,87.38
2022-12-08T15:33:12.320Z,87.30
2022-12-08T15:35:41.322Z,87.35
2022-12-08T15:38:24.799Z,87.50
2022-12-08T15:41:02.554Z,87.64
2022-12-08T15:43:31.401Z,87.70
2022-12-08T15:46:00.099Z,87.70
2022-12-08T15:48:32.527Z,87.70
2022-12-08T15:50:59.376Z,87.82
2022-12-08T15:53:26.376Z,87.76
2022-12-08T15:58:56.874Z,87.78
2022-12-08T16:01:24.585Z,87.91
2022-12-08T16:09:36.413Z,87.69
2022-12-08T16:12:22.063Z,87.53
2022-12-08T16:17:41.038Z,87.35
2022-12-08T16:20:13.365Z,87.46
2022-12-08T16:23:03.578Z,87.56
2022-12-08T16:25:33.373Z,87.80
2022-12-08T16:28:45.116Z,87.59
2022-12-08T16:30:56.958Z,87.76
2022-12-08T16:33:23.546Z,88.07
2022-12-08T16:35:50.154Z,88.07
2022-12-08T16:38:17.059Z,88.22
2022-12-08T16:41:04.086Z,87.65
2022-12-08T16:43:32.761Z,87.67
2022-12-08T16:45:59.985Z,87.40
2022-12-08T16:48:26.672Z,87.43
2022-12-08T16:50:55.860Z,87.43
2022-12-08T16:53:23.558Z,87.60
2022-12-08T16:55:51.247Z,87.37
2022-12-08T16:58:18.646Z,87.13
2022-12-08T17:00:45.318Z,87.21
2022-12-08T17:03:14.746Z,87.10
2022-12-08T17:05:41.780Z,87.25
2022-12-08T17:08:08.525Z,87.11
2022-12-08T17:10:39.447Z,87.50
2022-12-08T17:13:06.571Z,87.62
2022-12-08T17:15:33.341Z,87.70
2022-12-08T17:18:00.938Z,87.97
2022-12-08T17:20:30.900Z,88.42
2022-12-08T17:22:58.651Z,88.43
2022-12-08T17:25:28.838Z,88.17
2022-12-08T17:27:56.465Z,88.03
2022-12-08T17:30:23.287Z,88.13
2022-12-08T17:32:49.963Z,88.11
2022-12-08T17:35:16.615Z,87.92
2022-12-08T17:37:43.779Z,88.09
2022-12-08T17:40:10.711Z,87.94
2022-12-08T17:42:38.788Z,87.78
2022-12-08T17:45:07.540Z,87.84
2022-12-08T17:47:34.433Z,87.38
2022-12-08T17:50:01.099Z,87.33
2022-12-08T17:52:27.823Z,87.10
2022-12-08T17:54:54.440Z,87.02
2022-12-08T17:57:21.107Z,87.17
2022-12-08T17:59:47.728Z,86.90
2022-12-08T18:02:15.225Z,87.08
2022-12-08T18:04:41.872Z,86.96
2022-12-08T18:07:08.434Z,86.99
2022-12-08T18:09:35.121Z,86.96
2022-12-08T18:12:01.828Z,86.95
2022-12-08T18:14:28.583Z,86.94
2022-12-08T18:16:55.489Z,86.76
2022-12-08T18:19:22.377Z,86.74
2022-12-08T18:21:49.032Z,86.52
2022-12-08T18:24:19.381Z,86.50
2022-12-08T18:26:46.756Z,86.35
2022-12-08T18:29:13.612Z,86.10
2022-12-08T18:31:40.272Z,86.01
2022-12-08T18:34:07.000Z,85.95
2022-12-08T18:36:33.909Z,85.92
2022-12-08T18:39:03.374Z,86.05
2022-12-08T18:41:32.451Z,86.31
2022-12-08T18:43:59.103Z,86.57
2022-12-08T18:46:25.970Z,86.41
2022-12-08T18:48:53.120Z,86.28
2022-12-08T18:51:23.293Z,86.71
2022-12-08T18:53:50.151Z,87.35
2022-12-08T18:56:31.187Z,86.88
2022-12-08T18:59:03.272Z,86.85
2022-12-08T19:01:35.346Z,86.60
2022-12-08T19:06:52.054Z,85.97
2022-12-08T19:09:18.928Z,86.18
2022-12-08T19:11:45.495Z,86.70
2022-12-08T19:14:12.357Z,86.62
2022-12-08T19:16:38.921Z,86.90
2022-12-08T19:19:06.334Z,87.18
2022-12-08T19:21:33.310Z,87.06
2022-12-08T19:24:00.110Z,87.07
2022-12-08T19:26:27.852Z,87.07
2022-12-08T19:28:54.517Z,87.08
2022-12-08T19:31:21.298Z,86.97
2022-12-08T19:33:48.129Z,86.90
2022-12-08T19:36:17.905Z,86.47
2022-12-08T19:39:03.617Z,86.63
2022-12-08T19:41:49.090Z,86.45
2022-12-08T19:44:56.437Z,86.33
2022-12-08T19:47:27.222Z,86.38
2022-12-08T19:50:15.121Z,86.74
2022-12-08T19:52:42.549Z,87.41
2022-12-08T19:55:09.611Z,87.94
2022-12-08T19:57:36.233Z,87.98
2022-12-08T20:00:04.889Z,88.35
2022-12-08T20:02:31.622Z,88.40
2022-12-08T20:04:58.326Z,88.63
2022-12-08T20:07:24.978Z,89.18
2022-12-08T20:09:51.561Z,89.39
2022-12-08T20:12:18.224Z,89.69
2022-12-08T20:14:46.277Z,89.75
2022-12-08T20:17:16.017Z,90.09
2022-12-08T20:19:42.691Z,90.38
2022-12-08T20:22:09.447Z,90.77
2022-12-08T20:24:36.384Z,91.10
2022-12-08T20:27:03.194Z,91.30
2022-12-08T20:29:29.805Z,91.28
2022-12-08T20:31:56.528Z,91.58
2022-12-08T20:34:23.228Z,92.04
2022-12-08T20:36:49.914Z,92.61
2022-12-08T20:39:18.303Z,92.95
2022-12-08T20:41:46.209Z,93.50
2022-12-08T20:44:12.902Z,93.92
2022-12-08T20:46:41.063Z,94.27
2022-12-08T20:49:10.493Z,94.96
2022-12-08T20:51:37.296Z,95.23
2022-12-08T20:54:09.888Z,95.52
2022-12-08T20:56:36.525Z,95.53
2022-12-08T20:59:03.285Z,95.83
2022-12-08T21:01:30.209Z,95.69
2022-12-08T21:03:57.239Z,96.45
2022-12-08T21:06:26.994Z,96.75
2022-12-08T21:08:54.108Z,96.53
2022-12-08T21:11:20.839Z,97.07
2022-12-08T21:13:47.589Z,97.46
2022-12-08T21:16:15.685Z,97.26
2022-12-08T21:18:42.868Z,97.36
2022-12-08T21:21:12.615Z,97.41
2022-12-08T21:23:39.998Z,97.75
2022-12-08T21:26:12.414Z,97.36
2022-12-08T21:28:39.148Z,97.12
2022-12-08T21:31:08.277Z,97.44
2022-12-08T21:33:35.503Z,97.80
2022-12-08T21:36:21.786Z,97.76
2022-12-08T21:38:49.010Z,97.79
2022-12-08T21:41:40.124Z,97.77
2022-12-08T21:44:12.253Z,97.88
2022-12-08T21:46:39.357Z,97.74
2022-12-08T21:49:07.079Z,97.81
2022-12-08T21:51:37.914Z,97.92
2022-12-08T21:54:05.037Z,97.70
2022-12-08T21:56:31.883Z,97.84
2022-12-08T21:58:58.928Z,97.82
2022-12-08T22:01:25.729Z,97.63
2022-12-08T22:03:52.735Z,98.00
2022-12-08T22:06:19.385Z,97.88
2022-12-08T22:08:46.343Z,98.07
2022-12-08T22:11:13.305Z,97.89
2022-12-08T22:13:41.276Z,97.80
2022-12-08T22:16:10.545Z,97.63
2022-12-08T22:18:37.751Z,96.91
2022-12-08T22:21:15.468Z,96.97
2022-12-08T22:23:42.560Z,96.57
2022-12-08T22:26:09.451Z,96.34
2022-12-08T22:28:38.621Z,96.17
2022-12-08T22:31:17.172Z,96.04
2022-12-08T22:33:44.310Z,96.10
2022-12-08T22:36:22.899Z,96.01
2022-12-08T22:38:50.469Z,96.17
2022-12-08T22:41:18.150Z,96.23
2022-12-08T22:43:46.253Z,96.24
2022-12-08T22:46:15.667Z,96.90
2022-12-08T22:48:42.731Z,97.37
2022-12-08T22:51:10.683Z,97.33
2022-12-08T22:53:37.666Z,97.23
2022-12-08T22:56:09.810Z,97.03
2022-12-08T22:58:37.766Z,97.17
2022-12-08T23:01:04.850Z,97.22
2022-12-08T23:03:32.122Z,96.87
2022-12-08T23:05:59.202Z,97.48
2022-12-08T23:08:26.120Z,97.64
2022-12-08T23:10:54.253Z,97.52
2022-12-08T23:13:21.996Z,97.87
2022-12-08T23:15:48.862Z,98.23
2022-12-08T23:18:19.157Z,98.03
2022-12-08T23:20:47.599Z,97.92
2022-12-08T23:23:14.851Z,97.77
2022-12-08T23:25:42.560Z,97.92
2022-12-08T23:28:10.402Z,97.87
2022-12-08T23:30:40.394Z,97.64
2022-12-08T23:33:07.173Z,97.74
2022-12-08T23:35:34.071Z,97.82
2022-12-08T23:38:00.793Z,97.80
2022-12-08T23:40:27.541Z,97.75
2022-12-08T23:42:54.411Z,97.87
2022-12-08T23:45:21.217Z,97.94
2022-12-08T23:47:47.836Z,98.06
2022-12-08T23:50:14.556Z,97.96
2022-12-08T23:52:41.180Z,97.85
2022-12-08T23:55:08.438Z,97.97
2022-12-08T23:57:36.633Z,97.86
